createdAt,value
2022-08-23T00:02:02.737Z,16.40
2022-08-23T00:04:36.146Z,16.40
2022-08-23T00:07:04.654Z,16.40
2022-08-23T00:09:31.503Z,16.30
2022-08-23T00:12:33.931Z,16.30
2022-08-23T00:15:00.932Z,16.30
2022-08-23T00:17:48.019Z,16.30
2022-08-23T00:20:17.561Z,16.30
2022-08-23T00:22:44.473Z,16.30
2022-08-23T00:25:12.704Z,16.20
2022-08-23T00:27:39.866Z,16.20
2022-08-23T00:30:09.402Z,16.20
2022-08-23T00:32:37.720Z,16.10
2022-08-23T00:35:06.218Z,16.10
2022-08-23T00:37:33.816Z,16.00
2022-08-23T00:40:01.269Z,16.00
2022-08-23T00:42:59.153Z,16.00
2022-08-23T00:45:51.556Z,15.90
2022-08-23T00:48:18.409Z,15.90
2022-08-23T00:50:54.696Z,15.80
2022-08-23T00:53:28.706Z,15.80
2022-08-23T00:55:58.092Z,15.70
2022-08-23T00:58:25.276Z,15.60
2022-08-23T01:00:55.221Z,15.60
2022-08-23T01:03:24.503Z,15.50
2022-08-23T01:06:12.714Z,15.50
2022-08-23T01:08:45.630Z,15.40
2022-08-23T01:11:26.390Z,15.40
2022-08-23T01:13:57.843Z,15.40
2022-08-23T01:16:33.701Z,15.40
2022-08-23T01:19:02.490Z,15.30
2022-08-23T01:21:39.654Z,15.20
2022-08-23T01:24:10.052Z,15.30
2022-08-23T01:26:47.895Z,15.20
2022-08-23T01:29:17.349Z,15.10
2022-08-23T01:31:44.337Z,15.10
2022-08-23T01:34:13.930Z,15.20
2022-08-23T01:36:43.564Z,15.10
2022-08-23T01:39:10.497Z,15.10
2022-08-23T01:41:40.699Z,15.10
2022-08-23T01:44:09.454Z,15.00
2022-08-23T01:46:37.619Z,15.00
2022-08-23T01:49:08.435Z,14.90
2022-08-23T01:51:35.908Z,14.90
2022-08-23T01:54:02.686Z,14.90
2022-08-23T01:56:38.400Z,14.80
2022-08-23T01:59:10.027Z,14.80
2022-08-23T02:01:41.933Z,14.80
2022-08-23T02:04:08.961Z,14.80
2022-08-23T02:10:42.806Z,14.70
2022-08-23T02:13:10.225Z,14.70
2022-08-23T02:15:39.889Z,14.60
2022-08-23T02:18:06.728Z,14.50
2022-08-23T02:20:33.693Z,14.50
2022-08-23T02:23:20.599Z,14.50
2022-08-23T02:25:48.008Z,14.50
2022-08-23T02:28:14.853Z,14.40
2022-08-23T02:30:44.164Z,14.40
2022-08-23T02:33:13.026Z,14.40
2022-08-23T02:38:26.827Z,14.40
2022-08-23T02:41:00.691Z,14.40
2022-08-23T02:43:29.975Z,14.30
2022-08-23T02:45:56.864Z,14.30
2022-08-23T02:48:23.877Z,14.30
2022-08-23T02:51:01.527Z,14.20
2022-08-23T02:53:29.442Z,14.20
2022-08-23T02:55:56.934Z,14.20
2022-08-23T02:58:24.161Z,14.10
2022-08-23T03:00:51.954Z,14.10
2022-08-23T03:03:22.567Z,14.00
2022-08-23T03:05:50.136Z,14.00
2022-08-23T03:08:18.340Z,14.00
2022-08-23T03:10:51.066Z,14.00
2022-08-23T03:13:18.930Z,14.00
2022-08-23T03:15:48.545Z,14.00
2022-08-23T03:18:15.501Z,14.00
2022-08-23T03:20:43.820Z,14.00
2022-08-23T03:23:12.059Z,14.10
2022-08-23T03:25:39.202Z,14.10
2022-08-23T03:28:13.061Z,14.10
2022-08-23T03:30:44.380Z,14.00
2022-08-23T03:33:12.046Z,14.00
2022-08-23T03:35:39.507Z,14.00
2022-08-23T03:38:08.182Z,13.90
2022-08-23T03:40:35.356Z,13.80
2022-08-23T03:43:03.316Z,13.80
2022-08-23T03:45:31.136Z,13.70
2022-08-23T03:47:58.685Z,13.70
2022-08-23T03:50:26.478Z,13.60
2022-08-23T03:52:54.092Z,13.60
2022-08-23T03:55:21.215Z,13.60
2022-08-23T03:57:49.958Z,13.60
2022-08-23T04:00:20.258Z,13.70
2022-08-23T04:02:49.602Z,13.60
2022-08-23T04:05:16.981Z,13.50
2022-08-23T04:07:49.783Z,13.40
2022-08-23T04:10:17.683Z,13.40
2022-08-23T04:12:48.736Z,13.40
2022-08-23T04:15:18.844Z,13.40
2022-08-23T04:17:45.744Z,13.30
2022-08-23T04:20:12.745Z,13.30
2022-08-23T04:22:55.171Z,13.30
2022-08-23T04:25:34.631Z,13.30
2022-08-23T04:28:04.604Z,13.30
2022-08-23T04:30:32.887Z,13.30
2022-08-23T04:32:59.951Z,13.40
2022-08-23T04:35:29.988Z,13.50
2022-08-23T04:37:57.098Z,13.50
2022-08-23T04:40:43.788Z,13.60
2022-08-23T04:43:10.664Z,13.60
2022-08-23T04:45:39.134Z,13.70
2022-08-23T04:48:11.830Z,13.70
2022-08-23T04:50:42.495Z,13.90
2022-08-23T04:53:14.186Z,14.10
2022-08-23T04:55:56.243Z,14.50
2022-08-23T04:58:23.170Z,14.80
2022-08-23T05:00:53.271Z,15.10
2022-08-23T05:03:25.477Z,15.40
2022-08-23T05:05:53.977Z,15.70
2022-08-23T05:08:26.272Z,16.00
2022-08-23T05:10:53.761Z,16.30
2022-08-23T05:13:20.528Z,16.70
2022-08-23T05:15:52.963Z,17.00
2022-08-23T05:18:23.560Z,17.40
2022-08-23T05:20:51.268Z,17.70
2022-08-23T05:23:18.025Z,18.00
2022-08-23T05:25:53.815Z,18.40
2022-08-23T05:28:32.028Z,18.80
2022-08-23T05:31:06.969Z,19.10
2022-08-23T05:33:52.428Z,19.60
2022-08-23T05:36:27.492Z,20.00
2022-08-23T05:38:54.776Z,20.50
2022-08-23T05:41:22.010Z,21.00
2022-08-23T05:43:55.467Z,21.40
2022-08-23T05:46:26.601Z,21.80
2022-08-23T05:49:15.571Z,22.10
2022-08-23T05:51:51.675Z,22.50
2022-08-23T05:54:20.331Z,23.00
2022-08-23T05:56:56.857Z,23.40
2022-08-23T05:59:23.712Z,23.80
2022-08-23T06:01:50.626Z,24.20
2022-08-23T06:04:20.711Z,24.70
2022-08-23T06:06:48.604Z,25.10
2022-08-23T06:09:17.768Z,25.30
2022-08-23T06:11:46.874Z,25.80
2022-08-23T06:14:14.864Z,26.10
2022-08-23T06:16:46.398Z,26.10
2022-08-23T06:19:17.217Z,26.10
2022-08-23T06:21:47.101Z,26.10
2022-08-23T06:24:16.294Z,25.90
2022-08-23T06:27:01.874Z,25.80
2022-08-23T06:29:28.792Z,25.80
2022-08-23T06:32:14.416Z,26.00
2022-08-23T06:35:32.986Z,26.20
2022-08-23T06:38:13.249Z,26.60
2022-08-23T06:41:06.779Z,27.20
2022-08-23T06:43:59.066Z,27.80
2022-08-23T06:46:45.238Z,28.30
2022-08-23T06:49:12.746Z,28.60
2022-08-23T06:51:45.343Z,28.80
2022-08-23T06:54:21.312Z,28.90
2022-08-23T06:56:49.361Z,29.20
2022-08-23T06:59:20.485Z,29.40
2022-08-23T07:02:10.370Z,29.80
2022-08-23T07:05:04.698Z,30.20
2022-08-23T07:07:44.719Z,30.40
2022-08-23T07:10:15.518Z,30.50
2022-08-23T07:12:43.936Z,30.70
2022-08-23T07:15:13.530Z,30.90
2022-08-23T07:17:43.853Z,31.30
2022-08-23T07:20:11.103Z,31.30
2022-08-23T07:22:44.626Z,31.60
2022-08-23T07:25:12.413Z,31.80
2022-08-23T07:27:40.304Z,31.80
2022-08-23T07:30:08.940Z,31.90
2022-08-23T07:32:38.413Z,32.30
2022-08-23T07:35:21.610Z,32.50
2022-08-23T07:37:49.224Z,32.90
2022-08-23T07:40:20.729Z,33.60
2022-08-23T07:42:50.957Z,34.20
2022-08-23T07:45:18.706Z,34.30
2022-08-23T07:47:51.249Z,34.50
2022-08-23T07:50:20.039Z,34.70
2022-08-23T07:52:48.260Z,34.30
2022-08-23T07:55:17.981Z,34.00
2022-08-23T07:58:03.678Z,34.30
2022-08-23T08:00:53.926Z,34.80
2022-08-23T08:03:41.780Z,35.50
2022-08-23T08:06:22.705Z,35.80
2022-08-23T08:08:50.465Z,35.80
2022-08-23T08:11:20.540Z,35.90
2022-08-23T08:13:49.172Z,36.20
2022-08-23T08:16:34.993Z,36.50
2022-08-23T08:19:07.838Z,36.80
2022-08-23T08:22:13.123Z,37.10
2022-08-23T08:25:00.308Z,37.40
2022-08-23T08:27:28.019Z,37.80
2022-08-23T08:29:55.399Z,38.10
2022-08-23T08:32:22.190Z,38.30
2022-08-23T08:34:48.938Z,38.60
2022-08-23T08:37:15.764Z,38.80
2022-08-23T08:39:45.974Z,38.60
2022-08-23T08:42:57.660Z,38.30
2022-08-23T08:45:38.356Z,38.10
2022-08-23T08:48:13.502Z,38.30
2022-08-23T08:50:59.173Z,38.70
2022-08-23T08:53:35.588Z,39.00
2022-08-23T08:56:39.034Z,39.20
2022-08-23T08:59:26.942Z,39.50
2022-08-23T09:01:53.821Z,39.40
2022-08-23T09:04:31.791Z,39.10
2022-08-23T09:07:12.683Z,39.10
2022-08-23T09:09:58.256Z,38.90
2022-08-23T09:12:41.018Z,38.60
2022-08-23T09:15:17.503Z,38.60
2022-08-23T09:17:55.895Z,38.50
2022-08-23T09:20:32.697Z,38.70
2022-08-23T09:23:13.122Z,39.00
2022-08-23T09:25:41.979Z,39.20
2022-08-23T09:28:16.138Z,39.30
2022-08-23T09:31:02.660Z,39.80
2022-08-23T09:33:40.594Z,40.10
2022-08-23T09:36:25.834Z,40.10
2022-08-23T09:39:03.937Z,40.60
2022-08-23T09:41:43.630Z,41.00
2022-08-23T09:44:16.321Z,41.10
2022-08-23T09:46:44.055Z,40.90
2022-08-23T09:49:30.132Z,40.00
2022-08-23T09:52:42.093Z,39.30
2022-08-23T09:55:27.631Z,39.30
2022-08-23T09:57:54.524Z,39.60
2022-08-23T10:00:34.107Z,40.10
2022-08-23T10:03:22.456Z,40.40
2022-08-23T10:06:01.594Z,40.30
2022-08-23T10:08:42.382Z,40.10
2022-08-23T10:11:25.836Z,39.70
2022-08-23T10:13:53.642Z,39.50
2022-08-23T10:16:46.382Z,39.60
2022-08-23T10:19:44.818Z,39.20
2022-08-23T10:22:27.716Z,38.90
2022-08-23T10:25:26.476Z,38.70
2022-08-23T10:28:30.668Z,38.60
2022-08-23T10:31:28.789Z,38.30
2022-08-23T10:34:20.929Z,38.80
2022-08-23T10:36:51.096Z,38.70
2022-08-23T10:39:27.812Z,38.60
2022-08-23T10:42:17.174Z,38.60
2022-08-23T10:44:53.313Z,37.90
2022-08-23T10:47:33.720Z,36.30
2022-08-23T10:50:06.309Z,34.90
2022-08-23T10:52:40.175Z,34.00
2022-08-23T10:55:17.627Z,34.30
2022-08-23T10:57:48.924Z,35.10
2022-08-23T11:00:24.543Z,35.90
2022-08-23T11:03:05.774Z,35.40
2022-08-23T11:05:38.751Z,34.60
2022-08-23T11:08:36.316Z,34.80
2022-08-23T11:11:39.592Z,35.60
2022-08-23T11:14:24.784Z,36.50
2022-08-23T11:16:59.376Z,37.50
2022-08-23T11:19:47.884Z,37.40
2022-08-23T11:22:19.194Z,37.30
2022-08-23T11:24:55.510Z,37.50
2022-08-23T11:27:38.927Z,37.70
2022-08-23T11:30:34.995Z,38.40
2022-08-23T11:33:17.231Z,39.00
2022-08-23T11:36:09.408Z,38.50
2022-08-23T11:38:47.225Z,38.00
2022-08-23T11:41:20.533Z,37.50
2022-08-23T11:43:57.719Z,37.60
2022-08-23T11:46:25.809Z,37.60
2022-08-23T11:49:02.427Z,37.90
2022-08-23T11:51:45.038Z,37.80
2022-08-23T11:54:33.295Z,37.70
2022-08-23T11:57:10.114Z,37.80
2022-08-23T12:00:01.538Z,38.20
2022-08-23T12:02:38.624Z,38.90
2022-08-23T12:05:20.383Z,39.40
2022-08-23T12:07:54.734Z,39.70
2022-08-23T12:10:45.201Z,39.00
2022-08-23T12:13:21.097Z,37.60
2022-08-23T12:16:16.435Z,37.20
2022-08-23T12:18:47.620Z,37.20
2022-08-23T12:21:24.262Z,37.70
2022-08-23T12:23:56.589Z,38.00
2022-08-23T12:26:47.657Z,38.20
2022-08-23T12:29:32.751Z,38.50
2022-08-23T12:32:51.473Z,38.80
2022-08-23T12:35:29.095Z,39.10
2022-08-23T12:38:11.818Z,39.40
2022-08-23T12:40:42.559Z,39.60
2022-08-23T12:43:27.176Z,39.70
2022-08-23T12:46:00.923Z,39.70
2022-08-23T12:48:33.886Z,39.90
2022-08-23T12:51:08.228Z,40.00
2022-08-23T12:53:45.607Z,40.10
2022-08-23T12:56:31.584Z,39.60
2022-08-23T12:59:08.100Z,38.60
2022-08-23T13:01:39.342Z,38.30
2022-08-23T13:04:14.824Z,37.70
2022-08-23T13:06:54.980Z,37.30
2022-08-23T13:09:33.137Z,37.80
2022-08-23T13:12:01.231Z,38.40
2022-08-23T13:14:39.883Z,39.10
2022-08-23T13:17:18.543Z,39.20
2022-08-23T13:19:48.128Z,39.00
2022-08-23T13:22:26.048Z,38.70
2022-08-23T13:27:58.724Z,37.00
2022-08-23T13:30:38.732Z,35.40
2022-08-23T13:33:08.806Z,34.90
2022-08-23T13:35:49.791Z,35.60
2022-08-23T13:38:26.288Z,36.40
2022-08-23T13:41:06.372Z,37.00
2022-08-23T13:43:37.963Z,37.20
2022-08-23T13:46:23.157Z,37.60
2022-08-23T13:49:05.789Z,37.90
2022-08-23T13:51:39.403Z,37.90
2022-08-23T13:54:09.536Z,37.90
2022-08-23T13:56:51.835Z,37.80
2022-08-23T13:59:31.605Z,37.50
2022-08-23T14:02:01.656Z,36.80
2022-08-23T14:04:28.884Z,35.50
2022-08-23T14:06:55.755Z,34.90
2022-08-23T14:09:22.472Z,35.20
2022-08-23T14:11:54.657Z,35.90
2022-08-23T14:14:21.660Z,36.30
2022-08-23T14:16:48.468Z,36.20
2022-08-23T14:19:18.083Z,35.90
2022-08-23T14:22:02.245Z,36.30
2022-08-23T14:24:29.057Z,36.50
2022-08-23T14:26:57.214Z,36.30
2022-08-23T14:29:28.002Z,36.40
2022-08-23T14:31:56.071Z,36.40
2022-08-23T14:34:23.452Z,36.10
2022-08-23T14:39:39.323Z,35.20
2022-08-23T14:42:06.332Z,35.10
2022-08-23T14:44:36.313Z,35.20
2022-08-23T14:47:05.331Z,35.20
2022-08-23T14:49:32.412Z,34.80
2022-08-23T14:51:59.590Z,34.40
2022-08-23T14:54:26.604Z,34.00
2022-08-23T14:56:54.008Z,33.60
2022-08-23T14:59:21.163Z,32.90
2022-08-23T15:01:49.614Z,32.00
2022-08-23T15:04:20.504Z,31.10
2022-08-23T15:07:13.790Z,30.50
2022-08-23T15:09:34.916Z,30.20
2022-08-23T15:14:50.437Z,29.70
2022-08-23T15:17:17.410Z,29.60
2022-08-23T15:19:44.357Z,29.50
2022-08-23T15:22:18.617Z,29.40
2022-08-23T15:24:49.198Z,29.30
2022-08-23T15:27:17.070Z,29.00
2022-08-23T15:29:44.077Z,28.80
2022-08-23T15:32:12.509Z,28.50
2022-08-23T15:34:44.968Z,28.40
2022-08-23T15:37:12.983Z,28.20
2022-08-23T15:39:41.906Z,28.00
2022-08-23T15:42:08.811Z,27.80
2022-08-23T15:44:35.556Z,27.70
2022-08-23T15:47:04.864Z,27.60
2022-08-23T15:49:36.298Z,27.50
2022-08-23T15:52:04.391Z,27.60
2022-08-23T15:54:31.475Z,27.50
2022-08-23T15:56:58.526Z,27.50
2022-08-23T15:59:25.382Z,27.60
2022-08-23T16:01:52.589Z,27.70
2022-08-23T16:04:19.474Z,27.70
2022-08-23T16:06:46.853Z,27.70
2022-08-23T16:09:21.074Z,27.70
2022-08-23T16:11:49.293Z,27.80
2022-08-23T16:14:16.452Z,27.80
2022-08-23T16:16:46.665Z,27.80
2022-08-23T16:19:14.882Z,27.60
2022-08-23T16:21:44.400Z,27.50
2022-08-23T16:24:11.798Z,27.40
2022-08-23T16:26:41.790Z,27.30
2022-08-23T16:29:13.315Z,27.30
2022-08-23T16:31:41.225Z,27.30
2022-08-23T16:34:11.415Z,27.20
2022-08-23T16:36:44.753Z,27.00
2022-08-23T16:39:13.824Z,26.80
2022-08-23T16:41:40.761Z,26.70
2022-08-23T16:44:07.737Z,26.50
2022-08-23T16:46:36.367Z,26.40
2022-08-23T16:49:03.833Z,26.30
2022-08-23T16:51:30.723Z,26.20
2022-08-23T16:54:03.183Z,26.00
2022-08-23T16:56:34.268Z,26.00
2022-08-23T16:59:02.302Z,25.90
2022-08-23T17:01:29.727Z,25.80
2022-08-23T17:03:56.814Z,25.80
2022-08-23T17:06:23.992Z,25.70
2022-08-23T17:08:51.073Z,25.70
2022-08-23T17:11:19.873Z,25.60
2022-08-23T17:13:47.054Z,25.60
2022-08-23T17:16:13.860Z,25.50
2022-08-23T17:18:41.124Z,25.50
2022-08-23T17:21:09.634Z,25.40
2022-08-23T17:23:40.343Z,25.20
2022-08-23T17:26:09.464Z,25.10
2022-08-23T17:28:36.562Z,25.00
2022-08-23T17:31:03.545Z,24.90
2022-08-23T17:33:30.463Z,24.80
2022-08-23T17:35:57.514Z,24.70
2022-08-23T17:38:24.408Z,24.60
2022-08-23T17:40:52.246Z,24.50
2022-08-23T17:43:19.292Z,24.40
2022-08-23T17:45:49.953Z,24.30
2022-08-23T17:48:18.695Z,24.20
2022-08-23T17:50:46.913Z,24.10
2022-08-23T17:53:15.438Z,24.00
2022-08-23T17:55:43.076Z,23.90
2022-08-23T17:58:10.776Z,23.80
2022-08-23T18:00:39.359Z,23.70
2022-08-23T18:03:07.303Z,23.60
2022-08-23T18:05:37.204Z,23.50
2022-08-23T18:08:04.491Z,23.40
2022-08-23T18:10:31.457Z,23.30
2022-08-23T18:12:58.738Z,23.20
2022-08-23T18:15:28.813Z,23.20
2022-08-23T18:17:56.423Z,23.00
2022-08-23T18:20:26.956Z,22.90
2022-08-23T18:22:56.262Z,22.80
2022-08-23T18:25:24.012Z,22.70
2022-08-23T18:28:11.163Z,22.60
2022-08-23T18:30:48.477Z,22.50
2022-08-23T18:33:16.975Z,22.40
2022-08-23T18:35:45.651Z,22.30
2022-08-23T18:38:13.672Z,22.20
2022-08-23T18:40:45.981Z,22.10
2022-08-23T18:43:19.092Z,22.00
2022-08-23T18:45:48.244Z,21.90
2022-08-23T18:48:15.340Z,21.80
2022-08-23T18:50:42.757Z,21.70
2022-08-23T18:53:10.595Z,21.50
2022-08-23T18:55:37.338Z,21.30
2022-08-23T18:58:04.542Z,21.20
2022-08-23T19:00:32.286Z,21.20
2022-08-23T19:03:00.268Z,21.10
2022-08-23T19:05:27.422Z,21.10
2022-08-23T19:08:10.297Z,21.00
2022-08-23T19:10:37.688Z,21.00
2022-08-23T19:13:05.927Z,21.00
2022-08-23T19:15:34.639Z,20.90
2022-08-23T19:18:02.656Z,20.90
2022-08-23T19:20:29.638Z,20.80
2022-08-23T19:22:57.230Z,20.80
2022-08-23T19:25:24.917Z,20.70
2022-08-23T19:27:54.085Z,20.70
2022-08-23T19:30:20.990Z,20.70
2022-08-23T19:32:47.881Z,20.70
2022-08-23T19:35:14.743Z,20.60
2022-08-23T19:37:41.726Z,20.60
2022-08-23T19:40:09.379Z,20.50
2022-08-23T19:42:37.945Z,20.50
2022-08-23T19:45:06.660Z,20.50
2022-08-23T19:47:34.814Z,20.50
2022-08-23T19:50:04.035Z,20.40
2022-08-23T19:52:31.939Z,20.40
2022-08-23T19:55:05.672Z,20.40
2022-08-23T19:57:35.515Z,20.30
2022-08-23T20:00:07.578Z,20.30
2022-08-23T20:02:34.505Z,20.30
2022-08-23T20:05:01.242Z,20.30
2022-08-23T20:07:28.549Z,20.30
2022-08-23T20:09:58.757Z,20.30
2022-08-23T20:12:29.970Z,20.30
2022-08-23T20:14:56.808Z,20.20
2022-08-23T20:17:23.635Z,20.20
2022-08-23T20:19:51.900Z,20.20
2022-08-23T20:22:37.293Z,20.20
2022-08-23T20:25:06.954Z,20.10
2022-08-23T20:27:37.269Z,20.10
2022-08-23T20:30:06.919Z,20.00
2022-08-23T20:32:34.579Z,20.00
2022-08-23T20:35:02.420Z,20.00
2022-08-23T20:37:29.828Z,19.90
2022-08-23T20:39:56.736Z,19.90
2022-08-23T20:42:23.785Z,19.90
2022-08-23T20:44:50.663Z,19.80
2022-08-23T20:47:17.680Z,19.80
2022-08-23T20:49:44.536Z,19.80
2022-08-23T20:52:12.052Z,19.70
2022-08-23T20:54:39.346Z,19.70
2022-08-23T20:57:06.114Z,19.70
2022-08-23T20:59:33.057Z,19.70
2022-08-23T21:01:59.809Z,19.60
2022-08-23T21:04:29.861Z,19.60
2022-08-23T21:06:57.656Z,19.60
2022-08-23T21:09:29.450Z,19.60
2022-08-23T21:11:57.413Z,19.60
2022-08-23T21:14:24.327Z,19.50
2022-08-23T21:16:51.202Z,19.50
2022-08-23T21:19:18.961Z,19.50
2022-08-23T21:21:45.938Z,19.40
2022-08-23T21:24:13.021Z,19.30
2022-08-23T21:26:40.303Z,19.20
2022-08-23T21:29:09.491Z,19.20
2022-08-23T21:31:36.970Z,19.20
2022-08-23T21:34:04.237Z,19.00
2022-08-23T21:36:31.198Z,19.00
2022-08-23T21:38:57.992Z,18.90
2022-08-23T21:41:31.954Z,18.80
2022-08-23T21:43:59.123Z,18.80
2022-08-23T21:46:26.639Z,18.70
2022-08-23T21:48:53.516Z,18.70
2022-08-23T21:51:20.802Z,18.60
2022-08-23T21:53:47.702Z,18.60
2022-08-23T21:56:14.812Z,18.60
2022-08-23T21:58:41.781Z,18.50
2022-08-23T22:01:09.084Z,18.50
2022-08-23T22:03:36.894Z,18.40
2022-08-23T22:06:04.048Z,18.40
2022-08-23T22:08:31.168Z,18.40
2022-08-23T22:10:59.387Z,18.30
2022-08-23T22:13:28.625Z,18.30
2022-08-23T22:15:56.171Z,18.30
2022-08-23T22:18:23.082Z,18.20
2022-08-23T22:20:49.908Z,18.20
2022-08-23T22:23:17.291Z,18.20
2022-08-23T22:25:44.269Z,18.10
2022-08-23T22:28:11.026Z,18.10
2022-08-23T22:30:37.757Z,18.00
2022-08-23T22:33:04.781Z,18.00
2022-08-23T22:35:35.119Z,18.00
2022-08-23T22:38:13.701Z,18.00
2022-08-23T22:40:51.039Z,18.00
2022-08-23T22:43:19.440Z,18.10
2022-08-23T22:45:58.432Z,18.10
2022-08-23T22:48:29.190Z,18.20
2022-08-23T22:51:07.234Z,18.20
2022-08-23T22:53:35.812Z,18.20
2022-08-23T22:56:03.323Z,18.20
2022-08-23T22:58:30.380Z,18.20
2022-08-23T23:00:57.292Z,18.20
2022-08-23T23:03:24.081Z,18.10
2022-08-23T23:05:51.101Z,18.10
2022-08-23T23:08:27.161Z,18.00
2022-08-23T23:11:05.914Z,17.90
2022-08-23T23:13:33.696Z,17.90
2022-08-23T23:16:07.703Z,17.90
2022-08-23T23:18:35.524Z,17.90
2022-08-23T23:21:04.609Z,17.80
2022-08-23T23:23:32.750Z,17.80
2022-08-23T23:25:59.780Z,17.80
2022-08-23T23:28:27.563Z,17.80
2022-08-23T23:30:55.292Z,17.70
2022-08-23T23:33:23.425Z,17.70
2022-08-23T23:35:54.144Z,17.70
2022-08-23T23:38:21.597Z,17.60
2022-08-23T23:40:48.341Z,17.60
2022-08-23T23:43:15.290Z,17.60
2022-08-23T23:45:42.500Z,17.50
2022-08-23T23:48:09.941Z,17.40
2022-08-23T23:50:41.583Z,17.40
2022-08-23T23:53:13.662Z,17.30
2022-08-23T23:55:40.455Z,17.30
2022-08-23T23:58:07.228Z,17.20
